createdAt,value
2018-02-21T00:00:46.638Z,101.00
2018-02-21T00:01:46.649Z,99.60
2018-02-21T00:02:46.661Z,92.50
2018-02-21T00:03:46.690Z,100.90
2018-02-21T00:04:46.689Z,103.50
2018-02-21T00:05:46.700Z,94.80
2018-02-21T00:06:46.751Z,98.30
2018-02-21T00:07:46.725Z,94.90
2018-02-21T00:08:46.742Z,90.50
2018-02-21T00:09:46.753Z,95.90
2018-02-21T00:10:46.767Z,90.80
2018-02-21T00:11:46.778Z,95.00
2018-02-21T00:12:46.790Z,88.50
2018-02-21T00:13:46.806Z,91.80
2018-02-21T00:14:46.816Z,91.80
2018-02-21T00:15:46.828Z,93.50
2018-02-21T00:16:46.842Z,98.60
2018-02-21T00:17:46.854Z,93.70
2018-02-21T00:18:46.875Z,96.80
2018-02-21T00:19:46.878Z,98.90
2018-02-21T00:20:46.891Z,100.50
2018-02-21T00:21:46.902Z,106.10
2018-02-21T00:22:46.916Z,101.10
2018-02-21T00:23:46.929Z,97.90
2018-02-21T00:24:46.949Z,100.40
2018-02-21T00:25:46.955Z,101.30
2018-02-21T00:26:46.964Z,99.20
2018-02-21T00:27:46.981Z,102.70
2018-02-21T00:28:46.989Z,103.20
2018-02-21T00:29:47.000Z,107.20
2018-02-21T00:30:47.013Z,100.50
2018-02-21T00:31:47.028Z,100.70
2018-02-21T00:32:47.038Z,97.50
2018-02-21T00:33:47.055Z,104.40
2018-02-21T00:34:47.067Z,107.30
2018-02-21T00:35:47.073Z,108.40
2018-02-21T00:36:47.087Z,106.60
2018-02-21T00:37:47.101Z,108.90
2018-02-21T00:38:47.112Z,108.70
2018-02-21T00:39:47.122Z,110.30
2018-02-21T00:40:47.135Z,106.40
2018-02-21T00:41:47.147Z,110.60
2018-02-21T00:42:47.161Z,112.70
2018-02-21T00:43:47.173Z,113.70
2018-02-21T00:44:47.188Z,115.30
2018-02-21T00:45:47.197Z,118.10
2018-02-21T00:46:47.213Z,114.70
2018-02-21T00:47:47.222Z,110.30
2018-02-21T00:48:47.231Z,116.50
2018-02-21T00:49:47.244Z,116.00
2018-02-21T00:50:47.257Z,116.50
2018-02-21T00:51:47.267Z,114.00
2018-02-21T00:52:47.282Z,114.30
2018-02-21T00:53:47.292Z,116.30
2018-02-21T00:54:47.316Z,118.00
2018-02-21T00:55:47.316Z,114.40
2018-02-21T00:56:47.327Z,115.80
2018-02-21T00:57:47.338Z,119.10
2018-02-21T00:58:47.349Z,116.60
2018-02-21T00:59:47.361Z,115.40
2018-02-21T01:00:47.373Z,118.50
2018-02-21T01:01:47.383Z,119.60
2018-02-21T01:02:47.397Z,115.70
2018-02-21T01:03:47.408Z,116.10
2018-02-21T01:04:47.421Z,116.40
2018-02-21T01:05:47.432Z,117.60
2018-02-21T01:06:47.446Z,127.20
2018-02-21T01:07:47.456Z,121.60
2018-02-21T01:08:47.468Z,120.10
2018-02-21T01:09:47.478Z,122.50
2018-02-21T01:10:47.489Z,120.70
2018-02-21T01:11:47.503Z,128.40
2018-02-21T01:12:47.518Z,121.40
2018-02-21T01:13:47.523Z,124.70
2018-02-21T01:14:47.533Z,118.40
2018-02-21T01:15:47.546Z,118.20
2018-02-21T01:16:47.560Z,117.80
2018-02-21T01:17:47.571Z,117.90
2018-02-21T01:18:47.579Z,124.00
2018-02-21T01:19:47.592Z,122.10
2018-02-21T01:20:47.602Z,118.70
2018-02-21T01:21:47.615Z,123.20
2018-02-21T01:22:47.628Z,121.30
2018-02-21T01:23:47.644Z,122.20
2018-02-21T01:24:47.650Z,119.30
2018-02-21T01:25:47.661Z,127.40
2018-02-21T01:26:47.674Z,125.20
2018-02-21T01:27:47.683Z,121.10
2018-02-21T01:28:47.696Z,125.00
2018-02-21T01:29:47.707Z,123.30
2018-02-21T01:30:47.720Z,122.40
2018-02-21T01:31:47.729Z,121.40
2018-02-21T01:32:47.741Z,125.10
2018-02-21T01:33:47.752Z,120.60
2018-02-21T01:34:47.763Z,123.10
2018-02-21T01:35:47.776Z,123.00
2018-02-21T01:36:47.788Z,124.40
2018-02-21T01:37:47.799Z,135.70
2018-02-21T01:38:47.811Z,132.50
2018-02-21T01:39:47.824Z,124.60
2018-02-21T01:40:47.833Z,118.70
2018-02-21T01:41:47.843Z,128.30
2018-02-21T01:42:47.851Z,127.90
2018-02-21T01:43:47.865Z,124.50
2018-02-21T01:44:47.876Z,128.20
2018-02-21T01:45:47.887Z,125.30
2018-02-21T01:46:47.897Z,126.60
2018-02-21T01:47:47.911Z,128.90
2018-02-21T01:48:47.922Z,129.80
2018-02-21T01:49:47.932Z,133.10
2018-02-21T01:50:47.946Z,133.60
2018-02-21T01:51:47.955Z,125.50
2018-02-21T01:52:47.967Z,131.60
2018-02-21T01:53:47.988Z,121.50
2018-02-21T01:54:47.986Z,127.30
2018-02-21T01:55:48.002Z,125.30
2018-02-21T01:56:48.012Z,126.90
2018-02-21T01:57:48.025Z,125.80
2018-02-21T01:58:48.032Z,128.40
2018-02-21T01:59:48.044Z,128.50
2018-02-21T02:00:48.060Z,130.90
2018-02-21T02:01:48.064Z,126.10
2018-02-21T02:02:48.078Z,131.60
2018-02-21T02:03:48.091Z,138.50
2018-02-21T02:04:48.099Z,132.00
2018-02-21T02:05:48.106Z,130.20
2018-02-21T02:06:48.125Z,136.90
2018-02-21T02:07:48.135Z,134.40
2018-02-21T02:08:48.142Z,134.00
2018-02-21T02:09:48.155Z,127.90
2018-02-21T02:10:48.164Z,132.90
2018-02-21T02:11:48.179Z,129.60
2018-02-21T02:12:48.188Z,128.00
2018-02-21T02:13:48.222Z,126.20
2018-02-21T02:14:48.209Z,133.70
2018-02-21T02:15:48.222Z,132.90
2018-02-21T02:16:48.231Z,130.80
2018-02-21T02:17:48.242Z,128.10
2018-02-21T02:18:48.255Z,134.60
2018-02-21T02:19:48.265Z,130.30
2018-02-21T02:20:48.272Z,126.70
2018-02-21T02:21:48.286Z,124.50
2018-02-21T02:22:48.298Z,124.30
2018-02-21T02:23:48.306Z,130.50
2018-02-21T02:24:48.317Z,125.10
2018-02-21T02:25:48.333Z,130.90
2018-02-21T02:26:48.339Z,126.10
2018-02-21T02:27:48.353Z,123.20
2018-02-21T02:28:48.361Z,127.00
2018-02-21T02:29:48.374Z,119.50
2018-02-21T02:30:48.384Z,114.40
2018-02-21T02:31:48.395Z,115.70
2018-02-21T02:32:48.417Z,119.50
2018-02-21T02:33:48.415Z,118.30
2018-02-21T02:34:48.428Z,121.10
2018-02-21T02:35:48.438Z,116.80
2018-02-21T02:36:48.451Z,117.70
2018-02-21T02:37:48.456Z,125.40
2018-02-21T02:38:48.471Z,120.50
2018-02-21T02:39:48.482Z,123.10
2018-02-21T02:40:48.494Z,128.20
2018-02-21T02:41:48.505Z,115.40
2018-02-21T02:42:48.518Z,116.80
2018-02-21T02:43:48.525Z,117.30
2018-02-21T02:44:48.537Z,118.60
2018-02-21T02:45:48.545Z,115.30
2018-02-21T02:46:48.561Z,114.80
2018-02-21T02:47:48.702Z,116.10
2018-02-21T02:48:48.579Z,112.80
2018-02-21T02:49:48.594Z,110.30
2018-02-21T02:50:48.605Z,113.30
2018-02-21T02:51:48.619Z,116.90
2018-02-21T02:52:48.624Z,115.00
2018-02-21T02:53:48.636Z,108.80
2018-02-21T02:54:48.642Z,114.20
2018-02-21T02:55:48.653Z,118.40
2018-02-21T02:56:48.664Z,117.00
2018-02-21T02:57:48.673Z,116.80
2018-02-21T02:58:48.686Z,120.60
2018-02-21T02:59:48.704Z,112.70
2018-02-21T03:00:48.708Z,121.70
2018-02-21T03:01:48.726Z,125.40
2018-02-21T03:02:48.741Z,118.50
2018-02-21T03:03:48.742Z,121.20
2018-02-21T03:04:48.751Z,121.60
2018-02-21T03:05:48.764Z,116.00
2018-02-21T03:06:48.769Z,124.20
2018-02-21T03:07:48.781Z,120.40
2018-02-21T03:08:48.793Z,121.00
2018-02-21T03:09:48.803Z,119.30
2018-02-21T03:10:48.813Z,119.00
2018-02-21T03:11:48.826Z,127.10
2018-02-21T03:12:48.836Z,117.30
2018-02-21T03:13:48.844Z,121.50
2018-02-21T03:14:48.856Z,118.60
2018-02-21T03:15:48.868Z,115.90
2018-02-21T03:16:48.887Z,117.20
2018-02-21T03:17:48.892Z,115.60
2018-02-21T03:18:48.900Z,116.30
2018-02-21T03:19:48.915Z,119.70
2018-02-21T03:20:48.922Z,113.50
2018-02-21T03:21:48.932Z,114.00
2018-02-21T03:22:49.082Z,114.40
2018-02-21T03:23:48.952Z,110.60
2018-02-21T03:24:48.964Z,116.80
2018-02-21T03:25:48.974Z,116.90
2018-02-21T03:26:48.982Z,117.90
2018-02-21T03:27:49.004Z,115.80
2018-02-21T03:28:49.006Z,112.60
2018-02-21T03:29:49.020Z,113.10
2018-02-21T03:30:49.034Z,122.70
2018-02-21T03:31:49.042Z,117.40
2018-02-21T03:32:49.048Z,114.40
2018-02-21T03:33:49.058Z,113.70
2018-02-21T03:34:49.080Z,114.40
2018-02-21T03:35:49.078Z,111.50
2018-02-21T03:36:49.091Z,109.00
2018-02-21T03:37:49.099Z,110.40
2018-02-21T03:38:49.108Z,118.70
2018-02-21T03:39:49.128Z,113.80
2018-02-21T03:40:49.132Z,116.60
2018-02-21T03:41:49.141Z,111.50
2018-02-21T03:42:49.155Z,112.40
2018-02-21T03:43:49.164Z,120.10
2018-02-21T03:44:49.175Z,117.50
2018-02-21T03:45:49.196Z,120.90
2018-02-21T03:46:49.196Z,119.50
2018-02-21T03:47:49.206Z,118.80
2018-02-21T03:48:49.217Z,126.70
2018-02-21T03:49:49.231Z,123.90
2018-02-21T03:50:49.240Z,120.40
2018-02-21T03:51:49.259Z,125.80
2018-02-21T03:52:49.260Z,121.10
2018-02-21T03:53:49.273Z,124.20
2018-02-21T03:54:49.279Z,124.70
2018-02-21T03:55:49.296Z,121.60
2018-02-21T03:56:49.305Z,115.50
2018-02-21T03:57:49.310Z,121.70
2018-02-21T03:58:49.321Z,117.30
2018-02-21T03:59:49.331Z,124.50
2018-02-21T04:00:49.346Z,125.30
2018-02-21T04:01:49.353Z,117.70
2018-02-21T04:02:49.364Z,113.80
2018-02-21T04:03:49.376Z,112.60
2018-02-21T04:04:49.387Z,111.40
2018-02-21T04:05:49.396Z,109.30
2018-02-21T04:06:49.405Z,112.60
2018-02-21T04:07:49.417Z,115.00
2018-02-21T04:08:49.428Z,107.40
2018-02-21T04:09:49.437Z,108.00
2018-02-21T04:10:49.452Z,117.20
2018-02-21T04:11:49.460Z,119.40
2018-02-21T04:12:49.471Z,123.90
2018-02-21T04:13:49.479Z,118.60
2018-02-21T04:14:49.495Z,120.70
2018-02-21T04:15:49.505Z,122.90
2018-02-21T04:16:49.512Z,116.50
2018-02-21T04:17:49.524Z,115.50
2018-02-21T04:18:49.534Z,123.60
2018-02-21T04:19:49.543Z,122.00
2018-02-21T04:20:49.556Z,125.30
2018-02-21T04:21:49.564Z,114.10
2018-02-21T04:22:49.577Z,121.40
2018-02-21T04:23:49.586Z,117.20
2018-02-21T04:24:49.597Z,125.00
2018-02-21T04:25:49.614Z,124.80
2018-02-21T04:26:49.619Z,117.80
2018-02-21T04:27:49.628Z,116.80
2018-02-21T04:28:49.639Z,117.30
2018-02-21T04:29:49.653Z,119.20
2018-02-21T04:30:49.662Z,118.40
2018-02-21T04:31:49.671Z,113.20
2018-02-21T04:32:49.681Z,116.70
2018-02-21T04:33:49.690Z,116.30
2018-02-21T04:34:49.703Z,114.50
2018-02-21T04:35:49.710Z,117.50
2018-02-21T04:36:49.722Z,109.50
2018-02-21T04:37:49.735Z,115.50
2018-02-21T04:38:49.743Z,116.30
2018-02-21T04:39:49.762Z,118.70
2018-02-21T04:40:49.773Z,116.80
2018-02-21T04:41:49.778Z,113.00
2018-02-21T04:42:49.792Z,116.10
2018-02-21T04:43:49.800Z,118.70
2018-02-21T04:44:49.805Z,111.60
2018-02-21T04:45:49.816Z,115.80
2018-02-21T04:46:49.827Z,109.30
2018-02-21T04:47:49.838Z,114.80
2018-02-21T04:48:49.848Z,110.70
2018-02-21T04:49:49.858Z,112.20
2018-02-21T04:50:49.872Z,114.90
2018-02-21T04:51:49.880Z,108.50
2018-02-21T04:52:49.892Z,112.90
2018-02-21T04:53:49.897Z,111.30
2018-02-21T04:54:49.910Z,114.00
2018-02-21T04:55:49.921Z,109.20
2018-02-21T04:56:49.931Z,109.80
2018-02-21T04:57:49.943Z,105.40
2018-02-21T04:58:49.952Z,102.50
2018-02-21T04:59:49.966Z,106.20
2018-02-21T05:00:49.971Z,99.90
2018-02-21T05:01:49.981Z,109.20
2018-02-21T05:02:49.994Z,104.60
2018-02-21T05:03:50.005Z,105.90
2018-02-21T05:04:50.016Z,105.50
2018-02-21T05:05:50.035Z,109.90
2018-02-21T05:06:50.035Z,109.00
2018-02-21T05:07:50.045Z,108.80
2018-02-21T05:08:50.068Z,108.10
2018-02-21T05:09:50.070Z,108.90
2018-02-21T05:10:50.077Z,108.50
2018-02-21T05:11:50.092Z,110.60
2018-02-21T05:12:50.098Z,108.60
2018-02-21T05:13:50.108Z,111.30
2018-02-21T05:14:50.118Z,113.80
2018-02-21T05:15:50.133Z,114.60
2018-02-21T05:16:50.150Z,109.00
2018-02-21T05:17:50.151Z,116.90
2018-02-21T05:18:50.163Z,114.20
2018-02-21T05:19:50.172Z,115.80
2018-02-21T05:20:50.183Z,108.30
2018-02-21T05:21:50.192Z,103.60
2018-02-21T05:22:50.205Z,102.30
2018-02-21T05:23:50.217Z,102.90
2018-02-21T05:24:50.222Z,109.30
2018-02-21T05:25:50.234Z,103.30
2018-02-21T05:26:50.245Z,101.60
2018-02-21T05:27:50.255Z,104.40
2018-02-21T05:28:50.265Z,104.30
2018-02-21T05:29:50.275Z,107.20
2018-02-21T05:30:50.288Z,109.30
2018-02-21T05:31:50.295Z,107.80
2018-02-21T05:32:50.307Z,106.40
2018-02-21T05:33:50.314Z,107.50
2018-02-21T05:34:50.325Z,109.00
2018-02-21T05:35:50.337Z,108.10
2018-02-21T05:36:50.347Z,104.70
2018-02-21T05:37:50.356Z,103.00
2018-02-21T05:38:50.367Z,101.20
2018-02-21T05:39:50.378Z,100.20
2018-02-21T05:40:50.387Z,99.50
2018-02-21T05:41:50.409Z,105.90
2018-02-21T05:42:50.412Z,105.00
2018-02-21T05:43:50.421Z,114.70
2018-02-21T05:44:50.432Z,110.70
2018-02-21T05:45:50.450Z,111.50
2018-02-21T05:46:50.456Z,113.30
2018-02-21T05:47:50.460Z,110.20
2018-02-21T05:48:50.472Z,116.80
2018-02-21T05:49:50.483Z,113.70
2018-02-21T05:50:50.490Z,108.10
2018-02-21T05:51:50.501Z,107.30
2018-02-21T05:52:50.511Z,112.30
2018-02-21T05:53:50.542Z,111.90
2018-02-21T05:54:50.537Z,114.80
2018-02-21T05:55:50.540Z,113.70
2018-02-21T05:56:50.552Z,111.00
2018-02-21T05:57:50.562Z,117.00
2018-02-21T05:58:50.575Z,129.20
2018-02-21T05:59:50.628Z,123.50
2018-02-21T06:00:50.594Z,117.70
2018-02-21T06:01:50.602Z,115.30
2018-02-21T06:02:50.614Z,113.80
2018-02-21T06:03:50.622Z,114.50
2018-02-21T06:04:50.633Z,116.90
2018-02-21T06:05:50.641Z,117.50
2018-02-21T06:06:50.660Z,122.40
2018-02-21T06:07:50.665Z,122.90
2018-02-21T06:08:50.674Z,123.70
2018-02-21T06:09:50.684Z,130.90
2018-02-21T06:10:50.694Z,127.10
2018-02-21T06:11:50.704Z,112.10
2018-02-21T06:12:50.715Z,111.80
2018-02-21T06:13:50.725Z,108.10
2018-02-21T06:14:50.741Z,112.20
2018-02-21T06:15:50.757Z,104.20
2018-02-21T06:16:50.754Z,109.20
2018-02-21T06:17:50.765Z,106.00
2018-02-21T06:18:50.774Z,107.70
2018-02-21T06:19:50.786Z,110.00
2018-02-21T06:20:50.802Z,107.50
2018-02-21T06:21:50.803Z,108.90
2018-02-21T06:22:50.818Z,105.10
2018-02-21T06:23:50.827Z,107.00
2018-02-21T06:24:50.838Z,108.30
2018-02-21T06:25:50.844Z,114.50
2018-02-21T06:26:50.855Z,112.30
2018-02-21T06:27:50.867Z,113.30
2018-02-21T06:28:50.881Z,106.10
2018-02-21T06:29:50.886Z,103.30
2018-02-21T06:30:50.899Z,106.00
2018-02-21T06:31:50.906Z,101.70
2018-02-21T06:32:50.933Z,102.10
2018-02-21T06:33:50.930Z,103.00
2018-02-21T06:34:50.937Z,103.00
2018-02-21T06:35:50.948Z,101.80
2018-02-21T06:36:50.959Z,94.70
2018-02-21T06:37:50.970Z,101.80
2018-02-21T06:38:50.978Z,107.20
2018-02-21T06:39:50.986Z,99.70
2018-02-21T06:40:51.000Z,102.10
2018-02-21T06:41:51.007Z,102.50
2018-02-21T06:42:51.017Z,103.50
2018-02-21T06:43:51.081Z,106.40
2018-02-21T06:44:51.042Z,109.40
2018-02-21T06:45:51.069Z,106.70
2018-02-21T06:46:51.058Z,121.60
2018-02-21T06:47:51.069Z,137.10
2018-02-21T06:48:51.085Z,139.40
2018-02-21T06:49:51.088Z,131.90
2018-02-21T06:50:51.100Z,128.70
2018-02-21T06:51:51.114Z,114.00
2018-02-21T06:52:51.119Z,115.50
2018-02-21T06:53:51.130Z,116.40
2018-02-21T06:54:51.141Z,114.80
2018-02-21T06:55:51.151Z,116.50
2018-02-21T06:56:51.163Z,108.20
2018-02-21T06:57:51.175Z,115.70
2018-02-21T06:58:51.183Z,114.40
2018-02-21T06:59:51.192Z,104.00
2018-02-21T07:00:51.207Z,105.10
2018-02-21T07:01:51.279Z,99.40
2018-02-21T07:02:51.225Z,101.40
2018-02-21T07:03:51.236Z,103.10
2018-02-21T07:04:51.246Z,101.60
2018-02-21T07:05:51.257Z,99.50
2018-02-21T07:06:51.267Z,96.90
2018-02-21T07:07:51.277Z,107.80
2018-02-21T07:08:51.288Z,101.10
2018-02-21T07:09:51.299Z,103.00
2018-02-21T07:10:51.308Z,98.40
2018-02-21T07:11:51.320Z,103.70
2018-02-21T07:12:51.340Z,103.30
2018-02-21T07:13:51.341Z,99.10
2018-02-21T07:14:51.359Z,94.70
2018-02-21T07:15:51.366Z,93.70
2018-02-21T07:16:51.377Z,97.20
2018-02-21T07:17:51.390Z,90.10
2018-02-21T07:18:51.399Z,95.80
2018-02-21T07:19:51.412Z,101.70
2018-02-21T07:20:51.426Z,97.70
2018-02-21T07:21:51.435Z,99.20
2018-02-21T07:22:51.448Z,101.60
2018-02-21T07:23:51.464Z,99.90
2018-02-21T07:24:51.470Z,101.40
2018-02-21T07:25:51.484Z,94.50
2018-02-21T07:26:51.496Z,96.60
2018-02-21T07:27:51.508Z,95.70
2018-02-21T07:28:51.530Z,94.30
2018-02-21T07:29:51.536Z,88.20
2018-02-21T07:30:51.545Z,93.90
2018-02-21T07:31:51.561Z,86.10
2018-02-21T07:32:51.569Z,87.60
2018-02-21T07:33:51.584Z,86.20
2018-02-21T07:34:51.593Z,89.00
2018-02-21T07:35:51.611Z,84.40
2018-02-21T07:36:51.623Z,89.70
2018-02-21T07:37:51.636Z,88.90
2018-02-21T07:38:51.647Z,85.30
2018-02-21T07:39:51.660Z,83.80
2018-02-21T07:40:51.674Z,81.00
2018-02-21T07:41:51.686Z,82.40
2018-02-21T07:42:51.699Z,84.20
2018-02-21T07:43:51.713Z,82.80
2018-02-21T07:44:51.726Z,83.20
2018-02-21T07:45:51.740Z,82.70
2018-02-21T07:46:51.755Z,81.50
2018-02-21T07:47:51.770Z,79.00
2018-02-21T07:48:51.784Z,77.60
2018-02-21T07:49:51.796Z,84.90
2018-02-21T07:50:51.809Z,81.70
2018-02-21T07:51:51.824Z,81.10
2018-02-21T07:52:51.839Z,77.30
2018-02-21T07:53:51.850Z,80.30
2018-02-21T07:54:51.865Z,76.70
2018-02-21T07:55:51.884Z,79.30
2018-02-21T07:56:51.894Z,79.50
2018-02-21T07:57:51.910Z,80.10
2018-02-21T07:58:51.925Z,77.20
2018-02-21T07:59:51.938Z,77.90
2018-02-21T08:00:51.950Z,78.10
2018-02-21T08:01:51.970Z,74.00
2018-02-21T08:02:51.981Z,74.50
2018-02-21T08:03:51.994Z,77.80
2018-02-21T08:04:52.013Z,76.60
2018-02-21T08:05:52.037Z,77.00
2018-02-21T08:06:52.043Z,75.60
2018-02-21T08:07:52.055Z,73.90
2018-02-21T08:08:52.074Z,77.00
2018-02-21T08:09:52.092Z,77.40
2018-02-21T08:10:52.104Z,76.60
2018-02-21T08:11:52.118Z,77.70
2018-02-21T08:12:52.133Z,75.80
2018-02-21T08:13:52.152Z,78.00
2018-02-21T08:14:52.166Z,75.00
2018-02-21T08:15:52.183Z,73.60
2018-02-21T08:16:52.198Z,79.20
2018-02-21T08:17:52.215Z,76.90
2018-02-21T08:18:52.244Z,77.00
2018-02-21T08:19:52.251Z,69.00
2018-02-21T08:20:52.269Z,71.60
2018-02-21T08:21:52.285Z,64.30
2018-02-21T08:22:52.298Z,66.90
2018-02-21T08:23:52.312Z,65.80
2018-02-21T08:24:52.331Z,65.20
2018-02-21T08:25:52.407Z,66.10
2018-02-21T08:26:52.362Z,64.10
2018-02-21T08:27:52.382Z,71.90
2018-02-21T08:28:52.400Z,67.20
2018-02-21T08:29:52.414Z,66.90
2018-02-21T08:30:52.433Z,66.10
2018-02-21T08:31:52.447Z,63.50
2018-02-21T08:32:52.469Z,66.10
2018-02-21T08:33:52.486Z,64.70
2018-02-21T08:34:52.495Z,62.20
2018-02-21T08:35:52.514Z,62.40
2018-02-21T08:36:52.532Z,63.00
2018-02-21T08:37:52.545Z,65.80
2018-02-21T08:38:52.562Z,64.70
2018-02-21T08:39:52.577Z,68.10
2018-02-21T08:40:52.600Z,65.30
2018-02-21T08:41:52.610Z,62.80
2018-02-21T08:42:52.625Z,62.50
2018-02-21T08:43:52.639Z,63.40
2018-02-21T08:44:52.654Z,67.00
2018-02-21T08:45:52.671Z,68.20
2018-02-21T08:46:52.685Z,65.00
2018-02-21T08:47:52.701Z,63.30
2018-02-21T08:48:52.715Z,63.20
2018-02-21T08:49:52.728Z,64.40
2018-02-21T08:50:52.745Z,58.70
2018-02-21T08:51:52.757Z,64.80
2018-02-21T08:52:52.774Z,60.30
2018-02-21T08:53:52.786Z,68.30
2018-02-21T08:54:52.808Z,61.10
2018-02-21T08:55:52.816Z,62.60
2018-02-21T08:56:52.830Z,65.00
2018-02-21T08:57:52.848Z,63.80
2018-02-21T08:58:52.857Z,63.20
2018-02-21T08:59:52.867Z,64.30
2018-02-21T09:00:52.883Z,60.40
2018-02-21T09:01:52.895Z,61.30
2018-02-21T09:02:52.906Z,60.70
2018-02-21T09:03:52.917Z,63.90
2018-02-21T09:04:52.934Z,66.00
2018-02-21T09:05:52.947Z,62.20
2018-02-21T09:06:52.961Z,60.60
2018-02-21T09:07:52.967Z,61.60
2018-02-21T09:08:52.983Z,58.80
2018-02-21T09:09:52.996Z,62.00
2018-02-21T09:10:53.010Z,69.30
2018-02-21T09:11:53.022Z,60.90
2018-02-21T09:12:53.033Z,61.30
2018-02-21T09:13:53.054Z,59.80
2018-02-21T09:14:53.060Z,58.90
2018-02-21T09:15:53.072Z,63.50
2018-02-21T09:16:53.084Z,58.00
2018-02-21T09:17:53.097Z,55.20
2018-02-21T09:18:53.122Z,60.80
2018-02-21T09:19:53.124Z,65.40
2018-02-21T09:20:53.138Z,58.20
2018-02-21T09:21:53.149Z,57.10
2018-02-21T09:22:53.164Z,58.00
2018-02-21T09:23:53.179Z,56.50
2018-02-21T09:24:53.192Z,56.50
2018-02-21T09:25:53.202Z,56.10
2018-02-21T09:26:53.213Z,56.80
2018-02-21T09:27:53.228Z,53.30
2018-02-21T09:28:53.243Z,55.70
2018-02-21T09:29:53.253Z,56.00
2018-02-21T09:30:53.267Z,62.30
2018-02-21T09:31:53.279Z,48.90
2018-02-21T09:32:53.296Z,56.40
2018-02-21T09:33:53.307Z,51.60
2018-02-21T09:34:53.322Z,53.60
2018-02-21T09:35:53.332Z,55.30
2018-02-21T09:36:53.345Z,54.30
2018-02-21T09:37:53.356Z,50.30
2018-02-21T09:38:53.373Z,58.10
2018-02-21T09:39:53.385Z,50.80
2018-02-21T09:40:53.401Z,50.40
2018-02-21T09:41:53.411Z,51.80
2018-02-21T09:42:53.424Z,50.80
2018-02-21T09:43:53.440Z,50.70
2018-02-21T09:44:53.450Z,52.80
2018-02-21T09:45:53.464Z,49.40
2018-02-21T09:46:53.481Z,44.50
2018-02-21T09:47:53.489Z,47.30
2018-02-21T09:48:53.500Z,46.60
2018-02-21T09:49:53.520Z,44.60
2018-02-21T09:50:53.526Z,47.30
2018-02-21T09:51:53.542Z,47.10
2018-02-21T09:52:53.555Z,49.50
2018-02-21T09:53:53.565Z,47.90
2018-02-21T09:54:53.581Z,46.00
2018-02-21T09:55:53.595Z,44.60
2018-02-21T09:56:53.607Z,45.60
2018-02-21T09:57:53.617Z,46.60
2018-02-21T09:58:53.630Z,43.50
2018-02-21T09:59:53.647Z,44.70
2018-02-21T10:00:53.659Z,43.70
2018-02-21T10:01:53.676Z,46.10
2018-02-21T10:02:53.683Z,46.30
2018-02-21T10:03:53.699Z,44.40
2018-02-21T10:04:53.711Z,43.60
2018-02-21T10:05:53.724Z,45.40
2018-02-21T10:06:53.735Z,44.20
2018-02-21T10:07:53.751Z,45.70
2018-02-21T10:08:53.761Z,52.60
2018-02-21T10:09:53.772Z,45.40
2018-02-21T10:10:53.788Z,44.30
2018-02-21T10:11:53.800Z,44.90
2018-02-21T10:12:53.816Z,44.10
2018-02-21T10:13:53.827Z,47.50
2018-02-21T10:14:53.838Z,43.80
2018-02-21T10:15:53.853Z,41.40
2018-02-21T10:16:53.866Z,40.40
2018-02-21T10:17:53.878Z,40.80
2018-02-21T10:18:53.893Z,43.80
2018-02-21T10:19:53.906Z,42.30
2018-02-21T10:20:53.918Z,41.50
2018-02-21T10:21:53.934Z,41.50
2018-02-21T10:22:53.942Z,42.30
2018-02-21T10:23:53.963Z,42.30
2018-02-21T10:24:53.971Z,40.50
2018-02-21T10:25:53.986Z,40.70
2018-02-21T10:26:53.996Z,37.70
2018-02-21T10:27:54.009Z,38.90
2018-02-21T10:28:54.027Z,41.10
2018-02-21T10:29:54.049Z,42.50
2018-02-21T10:30:54.052Z,44.10
2018-02-21T10:31:54.065Z,40.80
2018-02-21T10:32:54.075Z,41.90
2018-02-21T10:33:54.090Z,42.40
2018-02-21T10:34:54.099Z,40.90
2018-02-21T10:35:54.114Z,43.10
2018-02-21T10:36:54.127Z,42.30
2018-02-21T10:37:54.137Z,40.80
2018-02-21T10:38:54.150Z,42.30
2018-02-21T10:39:54.166Z,43.10
2018-02-21T10:40:54.176Z,39.30
2018-02-21T10:41:54.190Z,40.00
2018-02-21T10:42:54.204Z,42.90
2018-02-21T10:43:54.217Z,41.40
2018-02-21T10:44:54.240Z,40.40
2018-02-21T10:45:54.243Z,40.00
2018-02-21T10:46:54.257Z,38.40
2018-02-21T10:47:54.269Z,39.00
2018-02-21T10:48:54.286Z,39.20
2018-02-21T10:49:54.297Z,40.00
2018-02-21T10:50:54.308Z,40.60
2018-02-21T10:51:54.323Z,39.50
2018-02-21T10:52:54.341Z,41.50
2018-02-21T10:53:54.375Z,43.60
2018-02-21T10:54:54.359Z,39.90
2018-02-21T10:55:54.375Z,41.40
2018-02-21T10:56:54.393Z,37.00
2018-02-21T10:57:54.401Z,40.10
2018-02-21T10:58:54.412Z,42.70
2018-02-21T10:59:54.427Z,41.00
2018-02-21T11:00:54.441Z,39.70
2018-02-21T11:01:54.453Z,41.00
2018-02-21T11:02:54.464Z,40.40
2018-02-21T11:03:54.479Z,41.60
2018-02-21T11:04:54.518Z,39.70
2018-02-21T11:05:54.509Z,41.50
2018-02-21T11:06:54.517Z,36.20
2018-02-21T11:07:54.536Z,39.00
2018-02-21T11:08:54.547Z,40.50
2018-02-21T11:09:54.555Z,38.30
2018-02-21T11:10:54.570Z,39.20
2018-02-21T11:11:54.584Z,37.40
2018-02-21T11:12:54.599Z,39.00
2018-02-21T11:13:54.609Z,40.80
2018-02-21T11:14:54.624Z,39.00
2018-02-21T11:15:54.634Z,38.70
2018-02-21T11:16:54.648Z,40.00
2018-02-21T11:17:54.663Z,39.80
2018-02-21T11:18:54.676Z,40.80
2018-02-21T11:19:54.689Z,40.40
2018-02-21T11:20:54.701Z,36.30
2018-02-21T11:21:54.714Z,36.10
2018-02-21T11:22:54.727Z,35.30
2018-02-21T11:23:54.745Z,36.70
2018-02-21T11:24:54.787Z,36.30
2018-02-21T11:25:54.769Z,38.20
2018-02-21T11:26:54.782Z,37.20
2018-02-21T11:27:54.793Z,31.70
2018-02-21T11:28:54.828Z,34.80
2018-02-21T11:29:54.820Z,34.60
2018-02-21T11:30:54.833Z,32.30
2018-02-21T11:31:54.845Z,32.60
2018-02-21T11:32:54.862Z,32.00
2018-02-21T11:33:54.874Z,31.30
2018-02-21T11:34:54.885Z,31.00
2018-02-21T11:35:54.901Z,33.00
2018-02-21T11:36:54.912Z,32.00
2018-02-21T11:37:54.954Z,30.30
2018-02-21T11:38:54.938Z,30.20
2018-02-21T11:39:54.951Z,31.80
2018-02-21T11:40:54.967Z,31.10
2018-02-21T11:41:54.977Z,34.00
2018-02-21T11:42:54.991Z,32.90
2018-02-21T11:43:55.004Z,31.30
2018-02-21T11:44:55.021Z,31.20
2018-02-21T11:45:55.031Z,33.80
2018-02-21T11:46:55.044Z,32.30
2018-02-21T11:47:55.058Z,33.20
2018-02-21T11:48:55.072Z,30.60
2018-02-21T11:49:55.084Z,36.20
2018-02-21T11:50:55.103Z,35.90
2018-02-21T11:51:55.113Z,31.30
2018-02-21T11:52:55.126Z,36.00
2018-02-21T11:53:55.138Z,36.50
2018-02-21T11:54:55.149Z,35.10
2018-02-21T11:55:55.169Z,32.90
2018-02-21T11:56:55.180Z,35.10
2018-02-21T11:57:55.187Z,33.80
2018-02-21T11:58:55.207Z,35.90
2018-02-21T11:59:55.214Z,31.60
2018-02-21T12:00:55.230Z,36.20
2018-02-21T12:01:55.246Z,33.10
2018-02-21T12:02:55.256Z,36.80
2018-02-21T12:03:55.270Z,35.40
2018-02-21T12:04:55.281Z,37.40
2018-02-21T12:05:55.293Z,32.80
2018-02-21T12:06:55.309Z,33.70
2018-02-21T12:07:55.321Z,32.90
2018-02-21T12:08:55.336Z,33.90
2018-02-21T12:09:55.348Z,36.00
2018-02-21T12:10:55.362Z,32.10
2018-02-21T12:11:55.372Z,32.80
2018-02-21T12:12:55.392Z,36.30
2018-02-21T12:13:55.399Z,34.50
2018-02-21T12:14:55.415Z,35.70
2018-02-21T12:15:55.427Z,37.80
2018-02-21T12:16:55.443Z,33.40
2018-02-21T12:17:55.459Z,31.40
2018-02-21T12:18:55.472Z,34.90
2018-02-21T12:19:55.482Z,35.60
2018-02-21T12:20:55.495Z,34.90
2018-02-21T12:21:55.507Z,35.60
2018-02-21T12:22:55.521Z,34.40
2018-02-21T12:23:55.534Z,34.10
2018-02-21T12:24:55.550Z,33.60
2018-02-21T12:25:55.564Z,35.10
2018-02-21T12:26:55.574Z,35.10
2018-02-21T12:27:55.588Z,35.30
2018-02-21T12:28:55.600Z,36.70
2018-02-21T12:29:55.614Z,35.70
2018-02-21T12:30:55.626Z,33.00
2018-02-21T12:31:55.642Z,35.90
2018-02-21T12:32:55.655Z,40.30
2018-02-21T12:33:55.666Z,36.50
2018-02-21T12:34:55.692Z,37.80
2018-02-21T12:35:55.698Z,35.20
2018-02-21T12:36:55.709Z,33.00
2018-02-21T12:37:55.722Z,34.70
2018-02-21T12:38:55.735Z,33.70
2018-02-21T12:39:55.750Z,32.20